Station Historical Data
Daily Summary for May 9, 2017 Units:  English    Metric   Both
« Previous Day
Next Day »
Daily Weekly Monthly Yearly Custom
  High: Low: Average:
Temperature: 55.6 °F 32.8 °F 46.2 °F
Dew Point: 36.7 °F 24.5 °F 30.8 °F
Humidity: 81% 37% 56%
Wind Speed: 10.0mph 0.0mph 2.5mph
Wind Gust: 14.0mph - -
Wind- - SSW
Pressure: 30.04 in 29.95 in -
Precipitation: 0.00 in    
Historical Graphs
 
 
Tabular Data for May 9, 2017
Time Temperature Dew Point Pressure Wind Wind Speed Wind Gust Humidity Rainfall Rate (Hourly)
00:04 41.7 °F 24.9 °F 29.98 in WNW 1.0 mph 5.0 mph 51% 0.00 in
00:09 41.8 °F 24.5 °F 29.98 in NW 2.0 mph 5.0 mph 50% 0.00 in
00:14 41.6 °F 25.3 °F 29.98 in NW 2.0 mph 5.0 mph 52% 0.00 in
00:19 41.4 °F 25.1 °F 29.98 in NW 1.0 mph 4.0 mph 52% 0.00 in
00:24 41.2 °F 25.3 °F 29.98 in Calm   3.0 mph 53% 0.00 in
00:29 41.0 °F 24.7 °F 29.98 in NW 1.0 mph 3.0 mph 52% 0.00 in
00:34 41.2 °F 25.3 °F 29.98 in NW 1.0 mph 4.0 mph 53% 0.00 in
00:39 40.9 °F 24.6 °F 29.98 in Calm   2.0 mph 52% 0.00 in
00:44 40.9 °F 26.0 °F 29.98 in Calm   3.0 mph 55% 0.00 in
00:49 41.0 °F 25.2 °F 29.99 in Calm   1.0 mph 53% 0.00 in
00:54 40.9 °F 26.0 °F 29.99 in Calm   2.0 mph 55% 0.00 in
00:59 40.8 °F 25.4 °F 29.98 in Calm   2.0 mph 54% 0.00 in
01:04 40.9 °F 26.0 °F 29.98 in NW 1.0 mph 2.0 mph 55% 0.00 in
01:09 40.9 °F 26.0 °F 29.98 in Calm   2.0 mph 55% 0.00 in
01:14 40.9 °F 26.4 °F 29.98 in Calm   3.0 mph 56% 0.00 in
01:19 40.8 °F 26.7 °F 29.98 in Calm     57% 0.00 in
01:24 40.9 °F 26.4 °F 29.97 in Calm   2.0 mph 56% 0.00 in
01:29 41.0 °F 26.1 °F 29.97 in NW 1.0 mph 3.0 mph 55% 0.00 in
01:34 40.7 °F 26.6 °F 29.97 in NW 1.0 mph 3.0 mph 57% 0.00 in
01:39 40.2 °F 26.6 °F 29.97 in NW 1.0 mph 2.0 mph 58% 0.00 in
01:44 40.1 °F 26.5 °F 29.97 in Calm   2.0 mph 58% 0.00 in
01:49 40.0 °F 26.4 °F 29.97 in Calm   1.0 mph 58% 0.00 in
01:54 40.0 °F 26.0 °F 29.97 in NNW 2.0 mph 4.0 mph 57% 0.00 in
01:59 39.8 °F 26.2 °F 29.97 in Calm   4.0 mph 58% 0.00 in
02:04 39.2 °F 26.5 °F 29.97 in North 1.0 mph 4.0 mph 60% 0.00 in
02:09 38.7 °F 26.0 °F 29.97 in North 1.0 mph 2.0 mph 60% 0.00 in
02:14 38.5 °F 26.2 °F 29.97 in Calm     61% 0.00 in
02:19 38.0 °F 26.1 °F 29.97 in Calm     62% 0.00 in
02:24 37.7 °F 26.2 °F 29.97 in Calm     63% 0.00 in
02:29 37.1 °F 26.0 °F 29.97 in Calm     64% 0.00 in
02:34 36.7 °F 26.4 °F 29.97 in Calm     66% 0.00 in
02:39 36.4 °F 26.8 °F 29.97 in Calm     68% 0.00 in
02:44 36.0 °F 26.5 °F 29.97 in Calm     68% 0.00 in
02:49 35.6 °F 26.4 °F 29.97 in Calm     69% 0.00 in
02:54 35.4 °F 26.6 °F 29.97 in Calm     70% 0.00 in
02:59 35.1 °F 26.6 °F 29.97 in Calm     71% 0.00 in
03:04 34.8 °F 27.0 °F 29.97 in Calm     73% 0.00 in
03:09 34.7 °F 27.3 °F 29.96 in Calm     74% 0.00 in
03:14 34.7 °F 27.3 °F 29.96 in Calm     74% 0.00 in
03:19 34.6 °F 27.2 °F 29.97 in Calm     74% 0.00 in
03:24 34.7 °F 27.6 °F 29.97 in Calm     75% 0.00 in
03:29 34.7 °F 27.9 °F 29.96 in Calm     76% 0.00 in
03:34 35.0 °F 28.2 °F 29.96 in Calm     76% 0.00 in
03:39 35.4 °F 28.6 °F 29.96 in Calm     76% 0.00 in
03:44 35.8 °F 29.3 °F 29.96 in Calm     77% 0.00 in
03:49 36.4 °F 29.2 °F 29.96 in Calm     75% 0.00 in
03:54 36.8 °F 29.0 °F 29.96 in Calm     73% 0.00 in
03:59 36.6 °F 29.1 °F 29.96 in Calm     74% 0.00 in
04:04 36.3 °F 28.8 °F 29.96 in Calm     74% 0.00 in
04:09 35.9 °F 28.7 °F 29.96 in Calm     75% 0.00 in
04:14 35.8 °F 28.6 °F 29.96 in Calm     75% 0.00 in
04:19 35.6 °F 28.5 °F 29.96 in Calm     75% 0.00 in
04:24 35.5 °F 28.7 °F 29.96 in Calm     76% 0.00 in
04:29 35.6 °F 29.1 °F 29.95 in Calm     77% 0.00 in
04:34 35.3 °F 28.8 °F 29.96 in Calm     77% 0.00 in
04:39 35.0 °F 28.8 °F 29.96 in Calm     78% 0.00 in
04:44 34.7 °F 28.9 °F 29.96 in Calm     79% 0.00 in
04:49 34.5 °F 28.7 °F 29.95 in Calm     79% 0.00 in
04:54 34.3 °F 28.5 °F 29.95 in Calm     79% 0.00 in
04:59 34.1 °F 28.6 °F 29.96 in Calm     80% 0.00 in
05:04 34.0 °F 28.5 °F 29.96 in Calm     80% 0.00 in
05:09 34.1 °F 28.3 °F 29.96 in Calm   1.0 mph 79% 0.00 in
05:14 34.3 °F 27.8 °F 29.95 in Calm   2.0 mph 77% 0.00 in
05:19 34.3 °F 27.8 °F 29.95 in ENE 1.0 mph 2.0 mph 77% 0.00 in
05:24 34.3 °F 27.5 °F 29.95 in Calm   4.0 mph 76% 0.00 in
05:29 34.4 °F 27.3 °F 29.96 in Calm   3.0 mph 75% 0.00 in
05:34 34.3 °F 27.5 °F 29.96 in Calm     76% 0.00 in
05:39 34.0 °F 27.2 °F 29.96 in Calm     76% 0.00 in
05:44 33.8 °F 27.4 °F 29.96 in Calm     77% 0.00 in
05:49 33.5 °F 27.4 °F 29.96 in Calm     78% 0.00 in
05:54 33.3 °F 27.5 °F 29.97 in Calm     79% 0.00 in
05:59 33.1 °F 27.3 °F 29.97 in Calm     79% 0.00 in
06:04 33.2 °F 27.4 °F 29.97 in Calm     79% 0.00 in
06:09 33.2 °F 27.4 °F 29.97 in Calm     79% 0.00 in
06:14 33.1 °F 27.3 °F 29.98 in Calm     79% 0.00 in
06:19 33.1 °F 27.3 °F 29.98 in Calm     79% 0.00 in
06:24 32.8 °F 27.3 °F 29.98 in Calm     80% 0.00 in
06:29 32.9 °F 27.7 °F 29.99 in Calm     81% 0.00 in
06:34 33.0 °F 27.8 °F 29.99 in Calm     81% 0.00 in
06:39 32.9 °F 27.7 °F 29.99 in Calm     81% 0.00 in
06:44 33.1 °F 27.9 °F 29.99 in Calm     81% 0.00 in
06:49 33.5 °F 28.3 °F 29.99 in Calm     81% 0.00 in
06:54 33.9 °F 28.4 °F 29.99 in Calm     80% 0.00 in
06:59 34.6 °F 29.1 °F 30.00 in Calm   2.0 mph 80% 0.00 in
07:04 35.1 °F 29.2 °F 30.00 in Calm   2.0 mph 79% 0.00 in
07:09 35.7 °F 29.2 °F 30.00 in Calm   2.0 mph 77% 0.00 in
07:14 36.4 °F 29.6 °F 30.01 in Calm   3.0 mph 76% 0.00 in
07:19 36.8 °F 29.6 °F 30.01 in Calm   3.0 mph 75% 0.00 in
07:24 37.3 °F 29.8 °F 30.00 in Calm     74% 0.00 in
07:29 37.7 °F 29.8 °F 30.00 in Calm     73% 0.00 in
07:34 38.3 °F 30.1 °F 30.01 in Calm   2.0 mph 72% 0.00 in
07:39 38.7 °F 30.4 °F 30.01 in Calm   2.0 mph 72% 0.00 in
07:44 39.3 °F 31.0 °F 30.01 in Calm     72% 0.00 in
07:49 39.8 °F 31.5 °F 30.01 in Calm     72% 0.00 in
07:54 40.1 °F 31.4 °F 30.01 in Calm     71% 0.00 in
07:59 41.5 °F 32.4 °F 30.01 in Calm     70% 0.00 in
08:04 42.0 °F 32.2 °F 30.01 in NW 1.0 mph 2.0 mph 68% 0.00 in
08:09 42.9 °F 31.6 °F 30.01 in NW 1.0 mph 3.0 mph 64% 0.00 in
08:14 42.8 °F 31.1 °F 30.01 in WNW 3.0 mph 4.0 mph 63% 0.00 in
08:19 43.3 °F 31.1 °F 30.01 in WNW 3.0 mph 4.0 mph 62% 0.00 in
08:24 43.8 °F 32.0 °F 30.01 in NW 3.0 mph 5.0 mph 63% 0.00 in
08:29 44.2 °F 31.2 °F 30.02 in West 4.0 mph 5.0 mph 60% 0.00 in
08:34 44.1 °F 30.7 °F 30.02 in WNW 1.0 mph 4.0 mph 59% 0.00 in
08:39 44.5 °F 31.5 °F 30.02 in WNW 3.0 mph 7.0 mph 60% 0.00 in
08:44 45.0 °F 31.9 °F 30.01 in WNW 2.0 mph 7.0 mph 60% 0.00 in
08:49 45.2 °F 30.9 °F 30.02 in WNW 2.0 mph 5.0 mph 57% 0.00 in
08:54 45.6 °F 31.2 °F 30.02 in WNW 2.0 mph 5.0 mph 57% 0.00 in
08:59 45.9 °F 31.1 °F 30.02 in NW 4.0 mph 7.0 mph 56% 0.00 in
09:04 46.3 °F 32.7 °F 30.01 in WNW 4.0 mph 6.0 mph 59% 0.00 in
09:09 45.6 °F 30.8 °F 30.02 in WNW 3.0 mph 6.0 mph 56% 0.00 in
09:14 46.4 °F 31.1 °F 30.02 in West 2.0 mph 4.0 mph 55% 0.00 in
09:19 46.8 °F 31.0 °F 30.02 in WNW 1.0 mph 6.0 mph 54% 0.00 in
09:24 47.0 °F 30.3 °F 30.02 in West 2.0 mph 8.0 mph 52% 0.00 in
09:29 47.5 °F 32.6 °F 30.01 in SSW 1.0 mph 4.0 mph 56% 0.00 in
09:34 48.3 °F 31.5 °F 30.01 in West 2.0 mph 8.0 mph 52% 0.00 in
09:39 48.3 °F 31.9 °F 30.02 in WNW 3.0 mph 8.0 mph 53% 0.00 in
09:44 48.0 °F 30.2 °F 30.02 in NW 3.0 mph 7.0 mph 50% 0.00 in
09:49 48.7 °F 31.8 °F 30.02 in West 3.0 mph 7.0 mph 52% 0.00 in
09:54 48.8 °F 31.9 °F 30.02 in WSW 3.0 mph 9.0 mph 52% 0.00 in
09:59 49.0 °F 30.7 °F 30.02 in WSW 3.0 mph 6.0 mph 49% 0.00 in
10:04 49.1 °F 30.2 °F 30.01 in West 4.0 mph 9.0 mph 48% 0.00 in
10:09 49.5 °F 29.6 °F 30.01 in West 4.0 mph 9.0 mph 46% 0.00 in
10:14 49.7 °F 30.8 °F 30.02 in West 4.0 mph 9.0 mph 48% 0.00 in
10:19 49.4 °F 30.0 °F 30.01 in WSW 4.0 mph 9.0 mph 47% 0.00 in
10:24 49.8 °F 31.4 °F 30.02 in WSW 3.0 mph 7.0 mph 49% 0.00 in
10:29 49.9 °F 30.5 °F 30.01 in West 4.0 mph 7.0 mph 47% 0.00 in
10:34 50.1 °F 29.6 °F 30.02 in WSW 3.0 mph 7.0 mph 45% 0.00 in
10:39 49.4 °F 28.9 °F 30.02 in WSW 4.0 mph 9.0 mph 45% 0.00 in
10:44 50.0 °F 30.5 °F 30.02 in West 3.0 mph 11.0 mph 47% 0.00 in
10:49 49.4 °F 31.0 °F 30.02 in WSW 6.0 mph 8.0 mph 49% 0.00 in
10:54 49.7 °F 30.3 °F 30.02 in WNW 4.0 mph 11.0 mph 47% 0.00 in
10:59 49.9 °F 33.0 °F 30.02 in SSW 2.0 mph 7.0 mph 52% 0.00 in
11:04 50.9 °F 31.9 °F 30.02 in WSW 3.0 mph 8.0 mph 48% 0.00 in
11:09 51.2 °F 32.7 °F 30.02 in West 4.0 mph 8.0 mph 49% 0.00 in
11:14 51.6 °F 33.6 °F 30.02 in West 4.0 mph 8.0 mph 50% 0.00 in
11:19 51.3 °F 34.3 °F 30.02 in WSW 4.0 mph 8.0 mph 52% 0.00 in
11:24 51.3 °F 34.3 °F 30.02 in WSW 5.0 mph 10.0 mph 52% 0.00 in
11:29 50.9 °F 33.9 °F 30.02 in WSW 4.0 mph 10.0 mph 52% 0.00 in
11:34 50.5 °F 32.0 °F 30.02 in SW 5.0 mph 10.0 mph 49% 0.00 in
11:39 50.8 °F 33.3 °F 30.02 in West 4.0 mph 8.0 mph 51% 0.00 in
11:44 51.0 °F 32.5 °F 30.02 in South 10.0 mph 11.0 mph 49% 0.00 in
11:49 50.3 °F 29.7 °F 30.02 in WSW 2.0 mph 10.0 mph 45% 0.00 in
11:54 51.8 °F 33.2 °F 30.02 in South 4.0 mph 10.0 mph 49% 0.00 in
11:59 52.3 °F 32.6 °F 30.02 in WSW 2.0 mph 8.0 mph 47% 0.00 in
12:04 51.9 °F 31.7 °F 30.02 in SW 4.0 mph 10.0 mph 46% 0.00 in
12:09 51.7 °F 29.9 °F 30.02 in SW 5.0 mph 11.0 mph 43% 0.00 in
12:14 51.9 °F 29.5 °F 30.02 in SW 5.0 mph 11.0 mph 42% 0.00 in
12:19 52.4 °F 33.8 °F 30.01 in WSW 5.0 mph 9.0 mph 49% 0.00 in
12:24 52.4 °F 32.7 °F 30.01 in SSW 4.0 mph 9.0 mph 47% 0.00 in
12:29 51.8 °F 28.8 °F 30.01 in South 4.0 mph 10.0 mph 41% 0.00 in
12:34 52.1 °F 30.8 °F 30.01 in SW 5.0 mph 10.0 mph 44% 0.00 in
12:39 52.4 °F 30.5 °F 30.01 in WSW 5.0 mph 9.0 mph 43% 0.00 in
12:44 52.8 °F 32.0 °F 30.01 in WSW 5.0 mph 11.0 mph 45% 0.00 in
12:49 53.1 °F 34.9 °F 30.00 in NW 2.0 mph 8.0 mph 50% 0.00 in
12:54 52.7 °F 32.5 °F 30.01 in WSW 5.0 mph 9.0 mph 46% 0.00 in
12:59 52.9 °F 30.4 °F 30.01 in West 8.0 mph 8.0 mph 42% 0.00 in
13:04 53.2 °F 31.8 °F 30.00 in WSW 5.0 mph 8.0 mph 44% 0.00 in
13:09 52.8 °F 32.6 °F 30.01 in WSW 4.0 mph 9.0 mph 46% 0.00 in
13:14 52.7 °F 29.6 °F 30.01 in WSW 5.0 mph 9.0 mph 41% 0.00 in
13:19 52.8 °F 30.9 °F 30.01 in SSW 5.0 mph 10.0 mph 43% 0.00 in
13:24 54.0 °F 31.4 °F 30.01 in SSW 6.0 mph 9.0 mph 42% 0.00 in
13:29 54.0 °F 32.0 °F 30.01 in WSW 5.0 mph 10.0 mph 43% 0.00 in
13:34 54.2 °F 33.3 °F 30.01 in West 5.0 mph 11.0 mph 45% 0.00 in
13:39 53.5 °F 32.7 °F 30.01 in WSW 6.0 mph 12.0 mph 45% 0.00 in
13:44 52.8 °F 30.3 °F 30.01 in SW 6.0 mph 12.0 mph 42% 0.00 in
13:49 53.1 °F 33.4 °F 30.01 in WSW 6.0 mph 11.0 mph 47% 0.00 in
13:54 54.2 °F 32.2 °F 30.01 in WSW 6.0 mph 13.0 mph 43% 0.00 in
13:59 53.9 °F 32.5 °F 30.01 in WSW 4.0 mph 11.0 mph 44% 0.00 in
14:04 54.5 °F 31.9 °F 30.01 in WSW 5.0 mph 11.0 mph 42% 0.00 in
14:09 54.1 °F 31.5 °F 30.01 in WSW 10.0 mph 10.0 mph 42% 0.00 in
14:14 53.8 °F 32.4 °F 30.01 in SW 2.0 mph 11.0 mph 44% 0.00 in
14:19 53.9 °F 30.1 °F 30.01 in SSW 7.0 mph 10.0 mph 40% 0.00 in
14:24 54.6 °F 33.1 °F 30.01 in West 2.0 mph 9.0 mph 44% 0.00 in
14:29 54.4 °F 31.8 °F 30.00 in South 7.0 mph 10.0 mph 42% 0.00 in
14:34 54.9 °F 32.2 °F 30.01 in WSW 6.0 mph 10.0 mph 42% 0.00 in
14:39 55.6 °F 33.4 °F 30.00 in SW 5.0 mph 8.0 mph 43% 0.00 in
14:44 54.1 °F 30.9 °F 30.00 in SW 6.0 mph 11.0 mph 41% 0.00 in
14:49 54.5 °F 33.0 °F 30.00 in SSW 7.0 mph 14.0 mph 44% 0.00 in
14:54 54.8 °F 32.1 °F 30.00 in WSW 6.0 mph 11.0 mph 42% 0.00 in
14:59 54.1 °F 32.1 °F 30.01 in West 5.0 mph 11.0 mph 43% 0.00 in
15:04 53.0 °F 32.8 °F 30.01 in WSW 5.0 mph 11.0 mph 46% 0.00 in
15:09 53.0 °F 31.1 °F 30.01 in WSW 5.0 mph 11.0 mph 43% 0.00 in
15:14 53.4 °F 31.4 °F 30.01 in WSW 5.0 mph 11.0 mph 43% 0.00 in
15:19 53.9 °F 31.3 °F 30.01 in SW 5.0 mph 10.0 mph 42% 0.00 in
15:24 55.0 °F 36.7 °F 30.01 in WSW 4.0 mph 8.0 mph 50% 0.00 in
15:29 54.6 °F 33.1 °F 30.00 in WSW 4.0 mph 9.0 mph 44% 0.00 in
15:34 54.8 °F 35.5 °F 30.00 in West 4.0 mph 8.0 mph 48% 0.00 in
15:39 53.9 °F 30.7 °F 30.00 in SW 1.0 mph 7.0 mph 41% 0.00 in
15:44 54.3 °F 32.8 °F 30.00 in WSW 4.0 mph 9.0 mph 44% 0.00 in
15:49 54.0 °F 32.0 °F 30.00 in WSW 4.0 mph 7.0 mph 43% 0.00 in
15:54 54.1 °F 32.1 °F 30.00 in SW 3.0 mph 8.0 mph 43% 0.00 in
15:59 54.2 °F 32.7 °F 30.00 in WSW 4.0 mph 8.0 mph 44% 0.00 in
16:04 54.2 °F 32.2 °F 30.00 in WSW 4.0 mph 8.0 mph 43% 0.00 in
16:09 54.1 °F 33.8 °F 30.00 in SW 4.0 mph 8.0 mph 46% 0.00 in
16:14 54.7 °F 33.2 °F 30.00 in SW 3.0 mph 8.0 mph 44% 0.00 in
16:19 54.7 °F 32.6 °F 30.00 in SW 3.0 mph 7.0 mph 43% 0.00 in
16:24 54.6 °F 33.1 °F 30.00 in WSW 4.0 mph 8.0 mph 44% 0.00 in
16:29 53.9 °F 32.5 °F 30.00 in SW 3.0 mph 8.0 mph 44% 0.00 in
16:34 54.2 °F 33.3 °F 30.00 in WSW 3.0 mph 7.0 mph 45% 0.00 in
16:39 54.4 °F 32.3 °F 29.99 in SSW 1.0 mph 4.0 mph 43% 0.00 in
16:44 54.5 °F 30.6 °F 29.99 in South 3.0 mph 5.0 mph 40% 0.00 in
16:49 55.1 °F 34.7 °F 30.00 in WSW 2.0 mph 5.0 mph 46% 0.00 in
16:54 55.1 °F 33.0 °F 30.00 in SSW 1.0 mph 5.0 mph 43% 0.00 in
16:59 55.5 °F 31.5 °F 30.00 in WSW 2.0 mph 6.0 mph 40% 0.00 in
17:04 55.2 °F 32.5 °F 30.00 in WNW 2.0 mph 6.0 mph 42% 0.00 in
17:09 54.6 °F 32.5 °F 30.00 in WNW 1.0 mph 4.0 mph 43% 0.00 in
17:14 55.2 °F 31.3 °F 30.00 in WNW 2.0 mph 5.0 mph 40% 0.00 in
17:19 54.6 °F 31.3 °F 30.00 in West 2.0 mph 6.0 mph 41% 0.00 in
17:24 54.6 °F 30.7 °F 30.00 in WSW 2.0 mph 4.0 mph 40% 0.00 in
17:29 54.2 °F 32.2 °F 30.00 in WSW 2.0 mph 6.0 mph 43% 0.00 in
17:34 54.2 °F 31.6 °F 30.00 in SW 3.0 mph 5.0 mph 42% 0.00 in
17:39 54.3 °F 29.8 °F 30.00 in Calm   3.0 mph 39% 0.00 in
17:44 54.4 °F 29.3 °F 30.00 in ENE 2.0 mph 7.0 mph 38% 0.00 in
17:49 54.2 °F 30.4 °F 30.00 in NE 2.0 mph 4.0 mph 40% 0.00 in
17:54 54.5 °F 30.6 °F 30.00 in NNW 3.0 mph 5.0 mph 40% 0.00 in
17:59 54.2 °F 28.5 °F 30.00 in North 3.0 mph 6.0 mph 37% 0.00 in
18:04 53.9 °F 30.7 °F 30.00 in NNW 2.0 mph 6.0 mph 41% 0.00 in
18:09 53.5 °F 29.7 °F 30.01 in NNW 1.0 mph 4.0 mph 40% 0.00 in
18:14 53.2 °F 28.9 °F 30.00 in Calm   3.0 mph 39% 0.00 in
18:19 53.5 °F 31.0 °F 30.00 in NE 2.0 mph 5.0 mph 42% 0.00 in
18:24 53.6 °F 31.6 °F 30.00 in ENE 2.0 mph 4.0 mph 43% 0.00 in
18:29 53.4 °F 29.7 °F 30.00 in ENE 2.0 mph 4.0 mph 40% 0.00 in
18:34 53.2 °F 32.4 °F 30.00 in ENE 2.0 mph 7.0 mph 45% 0.00 in
18:39 53.0 °F 31.6 °F 30.00 in NE 3.0 mph 7.0 mph 44% 0.00 in
18:44 52.8 °F 32.0 °F 30.00 in NE 2.0 mph 8.0 mph 45% 0.00 in
18:49 52.4 °F 32.2 °F 30.00 in NNE 2.0 mph 7.0 mph 46% 0.00 in
18:54 52.3 °F 31.6 °F 30.01 in ENE 4.0 mph 7.0 mph 45% 0.00 in
18:59 52.3 °F 31.6 °F 30.01 in NE 3.0 mph 7.0 mph 45% 0.00 in
19:04 52.3 °F 31.6 °F 30.01 in NE 2.0 mph 5.0 mph 45% 0.00 in
19:09 52.3 °F 31.6 °F 30.01 in NE 2.0 mph 6.0 mph 45% 0.00 in
19:14 52.0 °F 31.3 °F 30.02 in NE 3.0 mph 4.0 mph 45% 0.00 in
19:19 51.9 °F 31.7 °F 30.02 in NE 2.0 mph 4.0 mph 46% 0.00 in
19:24 51.9 °F 32.3 °F 30.01 in NE 2.0 mph 6.0 mph 47% 0.00 in
19:29 51.7 °F 32.1 °F 30.02 in NE 2.0 mph 6.0 mph 47% 0.00 in
19:34 51.6 °F 32.5 °F 30.02 in NE 2.0 mph 5.0 mph 48% 0.00 in
19:39 51.6 °F 32.0 °F 30.02 in NE 3.0 mph 7.0 mph 47% 0.00 in
19:44 51.5 °F 32.4 °F 30.02 in NNE 2.0 mph 7.0 mph 48% 0.00 in
19:49 51.5 °F 31.9 °F 30.02 in NE 4.0 mph 8.0 mph 47% 0.00 in
19:54 51.4 °F 32.9 °F 30.02 in NE 3.0 mph 8.0 mph 49% 0.00 in
19:59 51.3 °F 32.8 °F 30.02 in NE 4.0 mph 9.0 mph 49% 0.00 in
20:04 51.1 °F 33.1 °F 30.02 in ESE 7.0 mph 9.0 mph 50% 0.00 in
20:09 50.9 °F 33.4 °F 30.02 in ENE 3.0 mph 8.0 mph 51% 0.00 in
20:14 50.8 °F 33.8 °F 30.02 in NE 4.0 mph 10.0 mph 52% 0.00 in
20:19 50.6 °F 34.1 °F 30.02 in NE 4.0 mph 9.0 mph 53% 0.00 in
20:24 50.4 °F 33.9 °F 30.02 in NE 5.0 mph 10.0 mph 53% 0.00 in
20:29 50.2 °F 34.2 °F 30.01 in ENE 5.0 mph 10.0 mph 54% 0.00 in
20:34 50.1 °F 34.5 °F 30.01 in ENE 5.0 mph 9.0 mph 55% 0.00 in
20:39 49.9 °F 34.8 °F 30.01 in ENE 5.0 mph 11.0 mph 56% 0.00 in
20:44 49.7 °F 35.1 °F 30.01 in NE 8.0 mph 10.0 mph 57% 0.00 in
20:49 49.5 °F 35.3 °F 30.02 in NE 4.0 mph 11.0 mph 58% 0.00 in
20:54 49.3 °F 35.1 °F 30.01 in NE 6.0 mph 12.0 mph 58% 0.00 in
20:59 49.1 °F 34.9 °F 30.02 in NE 6.0 mph 12.0 mph 58% 0.00 in
21:04 48.9 °F 35.2 °F 30.02 in NE 6.0 mph 10.0 mph 59% 0.00 in
21:09 48.7 °F 35.0 °F 30.02 in NE 5.0 mph 13.0 mph 59% 0.00 in
21:14 48.6 °F 34.9 °F 30.02 in East 10.0 mph 11.0 mph 59% 0.00 in
21:19 48.6 °F 34.9 °F 30.03 in NE 6.0 mph 9.0 mph 59% 0.00 in
21:24 48.3 °F 34.2 °F 30.03 in NE 5.0 mph 12.0 mph 58% 0.00 in
21:29 48.3 °F 34.2 °F 30.03 in NE 6.0 mph 12.0 mph 58% 0.00 in
21:34 48.1 °F 34.0 °F 30.03 in NE 5.0 mph 11.0 mph 58% 0.00 in
21:39 48.1 °F 34.0 °F 30.03 in NE 5.0 mph 9.0 mph 58% 0.00 in
21:44 48.0 °F 33.9 °F 30.02 in ENE 5.0 mph 10.0 mph 58% 0.00 in
21:49 47.9 °F 33.8 °F 30.02 in NE 4.0 mph 9.0 mph 58% 0.00 in
21:54 47.9 °F 34.3 °F 30.02 in ENE 4.0 mph 6.0 mph 59% 0.00 in
21:59 47.8 °F 34.2 °F 30.02 in ENE 4.0 mph 8.0 mph 59% 0.00 in
22:04 47.8 °F 34.2 °F 30.02 in East 5.0 mph 8.0 mph 59% 0.00 in
22:09 47.6 °F 34.4 °F 30.02 in ENE 4.0 mph 8.0 mph 60% 0.00 in
22:14 47.6 °F 34.4 °F 30.02 in SE 2.0 mph 8.0 mph 60% 0.00 in
22:19 47.6 °F 34.4 °F 30.02 in East 1.0 mph 5.0 mph 60% 0.00 in
22:24 47.6 °F 34.4 °F 30.02 in ENE 3.0 mph 6.0 mph 60% 0.00 in
22:29 47.5 °F 34.7 °F 30.03 in ENE 2.0 mph 6.0 mph 61% 0.00 in
22:34 47.5 °F 34.7 °F 30.03 in East 2.0 mph 6.0 mph 61% 0.00 in
22:39 47.4 °F 34.6 °F 30.02 in East 2.0 mph 6.0 mph 61% 0.00 in
22:44 47.4 °F 34.6 °F 30.03 in East 2.0 mph 6.0 mph 61% 0.00 in
22:49 47.3 °F 34.5 °F 30.03 in ENE 5.0 mph 6.0 mph 61% 0.00 in
22:54 47.2 °F 34.0 °F 30.03 in ENE 3.0 mph 7.0 mph 60% 0.00 in
22:59 47.2 °F 34.0 °F 30.03 in ENE 4.0 mph 8.0 mph 60% 0.00 in
23:04 47.2 °F 34.0 °F 30.03 in ENE 3.0 mph 9.0 mph 60% 0.00 in
23:09 47.1 °F 33.9 °F 30.03 in ENE 2.0 mph 6.0 mph 60% 0.00 in
23:14 47.0 °F 34.2 °F 30.03 in NE 1.0 mph 6.0 mph 61% 0.00 in
23:19 46.8 °F 34.5 °F 30.03 in ENE 2.0 mph 7.0 mph 62% 0.00 in
23:24 46.7 °F 34.8 °F 30.04 in ENE 2.0 mph 7.0 mph 63% 0.00 in
23:29 46.7 °F 34.8 °F 30.04 in East 2.0 mph 7.0 mph 63% 0.00 in
23:34 46.5 °F 34.6 °F 30.04 in East 3.0 mph 8.0 mph 63% 0.00 in
23:39 46.5 °F 34.6 °F 30.03 in East 3.0 mph 8.0 mph 63% 0.00 in
23:44 46.4 °F 34.5 °F 30.04 in NE 6.0 mph 8.0 mph 63% 0.00 in
23:49 46.3 °F 34.4 °F 30.04 in NE 7.0 mph 12.0 mph 63% 0.00 in
23:54 46.2 °F 34.7 °F 30.04 in ENE 5.0 mph 12.0 mph 64% 0.00 in
23:59 46.2 °F 35.1 °F 30.04 in ENE 4.0 mph 7.0 mph 65% 0.00 in
Buffalo, New York, USA
Compliments of Weather Underground - 2.5 mb